sensor_id;sensor_type;location;lat;lon;timestamp;P1;durP1;ratioP1;P2;durP2;ratioP2
36829;SDS011;22767;47.328;9.640;2022-07-29T00:01:07;0.85;;;0.50;;
36829;SDS011;22767;47.328;9.640;2022-07-29T00:03:53;1.05;;;0.65;;
36829;SDS011;22767;47.328;9.640;2022-07-29T00:06:39;0.63;;;0.55;;
36829;SDS011;22767;47.328;9.640;2022-07-29T00:09:26;1.10;;;0.60;;
36829;SDS011;22767;47.328;9.640;2022-07-29T00:12:12;1.10;;;0.65;;
36829;SDS011;22767;47.328;9.640;2022-07-29T00:14:59;0.60;;;0.60;;
36829;SDS011;22767;47.328;9.640;2022-07-29T00:17:45;0.50;;;0.50;;
36829;SDS011;22767;47.328;9.640;2022-07-29T00:20:32;1.08;;;0.43;;
36829;SDS011;22767;47.328;9.640;2022-07-29T00:23:18;1.90;;;0.55;;
36829;SDS011;22767;47.328;9.640;2022-07-29T00:26:05;0.40;;;0.40;;
36829;SDS011;22767;47.328;9.640;2022-07-29T00:28:51;1.08;;;0.50;;
36829;SDS011;22767;47.328;9.640;2022-07-29T00:31:37;0.60;;;0.60;;
36829;SDS011;22767;47.328;9.640;2022-07-29T00:34:24;2.10;;;0.68;;
36829;SDS011;22767;47.328;9.640;2022-07-29T00:37:29;0.75;;;0.50;;
36829;SDS011;22767;47.328;9.640;2022-07-29T00:40:15;1.75;;;0.60;;
36829;SDS011;22767;47.328;9.640;2022-07-29T00:43:02;1.42;;;0.57;;
36829;SDS011;22767;47.328;9.640;2022-07-29T00:45:48;0.73;;;0.57;;
36829;SDS011;22767;47.328;9.640;2022-07-29T00:48:34;0.50;;;0.47;;
36829;SDS011;22767;47.328;9.640;2022-07-29T00:51:21;0.75;;;0.60;;
36829;SDS011;22767;47.328;9.640;2022-07-29T00:54:07;1.90;;;0.63;;
36829;SDS011;22767;47.328;9.640;2022-07-29T00:56:55;0.60;;;0.50;;
36829;SDS011;22767;47.328;9.640;2022-07-29T00:59:42;0.60;;;0.60;;
36829;SDS011;22767;47.328;9.640;2022-07-29T01:02:28;0.50;;;0.50;;
36829;SDS011;22767;47.328;9.640;2022-07-29T01:05:22;0.60;;;0.60;;
36829;SDS011;22767;47.328;9.640;2022-07-29T01:08:09;1.10;;;0.60;;
36829;SDS011;22767;47.328;9.640;2022-07-29T01:10:56;0.55;;;0.50;;
36829;SDS011;22767;47.328;9.640;2022-07-29T01:13:43;0.85;;;0.55;;
36829;SDS011;22767;47.328;9.640;2022-07-29T01:16:36;1.00;;;0.70;;
36829;SDS011;22767;47.328;9.640;2022-07-29T01:28:57;0.80;;;0.57;;
36829;SDS011;22767;47.328;9.640;2022-07-29T01:34:48;0.63;;;0.57;;
36829;SDS011;22767;47.328;9.640;2022-07-29T01:40:48;1.20;;;0.50;;
36829;SDS011;22767;47.328;9.640;2022-07-29T01:43:38;1.02;;;0.63;;
36829;SDS011;22767;47.328;9.640;2022-07-29T01:46:28;2.42;;;0.60;;
36829;SDS011;22767;47.328;9.640;2022-07-29T01:49:16;1.15;;;0.60;;
36829;SDS011;22767;47.328;9.640;2022-07-29T01:52:11;2.95;;;0.65;;
36829;SDS011;22767;47.328;9.640;2022-07-29T01:55:01;0.82;;;0.50;;
36829;SDS011;22767;47.328;9.640;2022-07-29T01:57:49;0.85;;;0.70;;
36829;SDS011;22767;47.328;9.640;2022-07-29T02:00:35;1.85;;;0.88;;
36829;SDS011;22767;47.328;9.640;2022-07-29T02:03:22;1.05;;;0.60;;
36829;SDS011;22767;47.328;9.640;2022-07-29T02:06:09;0.65;;;0.63;;
36829;SDS011;22767;47.328;9.640;2022-07-29T02:08:56;0.60;;;0.60;;
36829;SDS011;22767;47.328;9.640;2022-07-29T02:11:46;1.25;;;0.90;;
36829;SDS011;22767;47.328;9.640;2022-07-29T02:14:36;2.38;;;0.85;;
36829;SDS011;22767;47.328;9.640;2022-07-29T02:17:27;0.70;;;0.70;;
36829;SDS011;22767;47.328;9.640;2022-07-29T02:20:15;1.10;;;0.70;;
36829;SDS011;22767;47.328;9.640;2022-07-29T02:23:02;1.33;;;0.90;;
36829;SDS011;22767;47.328;9.640;2022-07-29T02:25:50;1.15;;;0.95;;
36829;SDS011;22767;47.328;9.640;2022-07-29T02:28:38;3.05;;;0.93;;
36829;SDS011;22767;47.328;9.640;2022-07-29T02:31:26;2.83;;;0.80;;
36829;SDS011;22767;47.328;9.640;2022-07-29T02:34:15;0.65;;;0.60;;
36829;SDS011;22767;47.328;9.640;2022-07-29T02:37:02;0.80;;;0.80;;
36829;SDS011;22767;47.328;9.640;2022-07-29T02:39:49;0.68;;;0.60;;
36829;SDS011;22767;47.328;9.640;2022-07-29T02:42:39;0.70;;;0.70;;
36829;SDS011;22767;47.328;9.640;2022-07-29T02:45:27;0.80;;;0.65;;
36829;SDS011;22767;47.328;9.640;2022-07-29T02:48:14;1.38;;;0.70;;
36829;SDS011;22767;47.328;9.640;2022-07-29T02:51:04;0.90;;;0.70;;
36829;SDS011;22767;47.328;9.640;2022-07-29T02:53:53;0.60;;;0.60;;
36829;SDS011;22767;47.328;9.640;2022-07-29T02:56:40;0.50;;;0.50;;
36829;SDS011;22767;47.328;9.640;2022-07-29T02:59:28;1.25;;;0.70;;
36829;SDS011;22767;47.328;9.640;2022-07-29T03:02:17;0.82;;;0.68;;
36829;SDS011;22767;47.328;9.640;2022-07-29T03:05:04;0.77;;;0.77;;
36829;SDS011;22767;47.328;9.640;2022-07-29T03:08:01;0.75;;;0.70;;
36829;SDS011;22767;47.328;9.640;2022-07-29T03:10:48;1.65;;;0.70;;
36829;SDS011;22767;47.328;9.640;2022-07-29T03:13:35;0.60;;;0.60;;
36829;SDS011;22767;47.328;9.640;2022-07-29T03:16:21;1.45;;;0.68;;
36829;SDS011;22767;47.328;9.640;2022-07-29T03:19:09;0.85;;;0.60;;
36829;SDS011;22767;47.328;9.640;2022-07-29T03:21:56;0.60;;;0.60;;
36829;SDS011;22767;47.328;9.640;2022-07-29T03:24:42;0.63;;;0.50;;
36829;SDS011;22767;47.328;9.640;2022-07-29T03:27:29;1.13;;;0.70;;
36829;SDS011;22767;47.328;9.640;2022-07-29T03:30:15;1.05;;;0.88;;
36829;SDS011;22767;47.328;9.640;2022-07-29T03:33:02;1.15;;;0.75;;
36829;SDS011;22767;47.328;9.640;2022-07-29T03:35:48;1.33;;;0.90;;
36829;SDS011;22767;47.328;9.640;2022-07-29T03:38:34;2.10;;;0.70;;
36829;SDS011;22767;47.328;9.640;2022-07-29T03:41:21;1.10;;;1.00;;
36829;SDS011;22767;47.328;9.640;2022-07-29T03:44:08;2.85;;;0.82;;
36829;SDS011;22767;47.328;9.640;2022-07-29T03:46:55;0.88;;;0.70;;
36829;SDS011;22767;47.328;9.640;2022-07-29T03:49:44;2.63;;;1.05;;
36829;SDS011;22767;47.328;9.640;2022-07-29T03:52:32;1.23;;;0.90;;
36829;SDS011;22767;47.328;9.640;2022-07-29T03:55:19;2.15;;;0.80;;
36829;SDS011;22767;47.328;9.640;2022-07-29T03:58:05;0.52;;;0.52;;
36829;SDS011;22767;47.328;9.640;2022-07-29T04:00:54;1.00;;;0.90;;
36829;SDS011;22767;47.328;9.640;2022-07-29T04:03:40;0.90;;;0.70;;
36829;SDS011;22767;47.328;9.640;2022-07-29T04:06:27;0.65;;;0.65;;
36829;SDS011;22767;47.328;9.640;2022-07-29T04:09:14;0.70;;;0.70;;
36829;SDS011;22767;47.328;9.640;2022-07-29T04:12:00;0.60;;;0.60;;
36829;SDS011;22767;47.328;9.640;2022-07-29T04:14:47;1.27;;;0.80;;
36829;SDS011;22767;47.328;9.640;2022-07-29T04:17:34;0.60;;;0.60;;
36829;SDS011;22767;47.328;9.640;2022-07-29T04:20:20;1.20;;;0.80;;
36829;SDS011;22767;47.328;9.640;2022-07-29T04:23:06;0.80;;;0.80;;
36829;SDS011;22767;47.328;9.640;2022-07-29T04:25:53;0.95;;;0.95;;
36829;SDS011;22767;47.328;9.640;2022-07-29T04:28:40;1.10;;;1.00;;
36829;SDS011;22767;47.328;9.640;2022-07-29T04:31:28;1.02;;;1.00;;
36829;SDS011;22767;47.328;9.640;2022-07-29T04:34:14;0.65;;;0.60;;
36829;SDS011;22767;47.328;9.640;2022-07-29T04:37:01;2.42;;;0.80;;
36829;SDS011;22767;47.328;9.640;2022-07-29T04:39:47;1.08;;;0.60;;
36829;SDS011;22767;47.328;9.640;2022-07-29T04:42:33;0.93;;;0.70;;
36829;SDS011;22767;47.328;9.640;2022-07-29T04:45:20;1.00;;;0.90;;
36829;SDS011;22767;47.328;9.640;2022-07-29T04:48:06;0.77;;;0.60;;
36829;SDS011;22767;47.328;9.640;2022-07-29T04:50:53;0.85;;;0.63;;
36829;SDS011;22767;47.328;9.640;2022-07-29T04:53:39;0.70;;;0.70;;
36829;SDS011;22767;47.328;9.640;2022-07-29T04:56:25;3.22;;;0.88;;
36829;SDS011;22767;47.328;9.640;2022-07-29T04:59:12;0.85;;;0.85;;
36829;SDS011;22767;47.328;9.640;2022-07-29T05:01:58;1.48;;;0.90;;
36829;SDS011;22767;47.328;9.640;2022-07-29T05:04:45;0.80;;;0.70;;
36829;SDS011;22767;47.328;9.640;2022-07-29T05:07:31;0.80;;;0.50;;
36829;SDS011;22767;47.328;9.640;2022-07-29T05:10:17;0.70;;;0.70;;
36829;SDS011;22767;47.328;9.640;2022-07-29T05:13:05;0.70;;;0.70;;
36829;SDS011;22767;47.328;9.640;2022-07-29T05:15:52;1.05;;;0.80;;
36829;SDS011;22767;47.328;9.640;2022-07-29T05:18:38;0.73;;;0.73;;
36829;SDS011;22767;47.328;9.640;2022-07-29T05:21:24;0.98;;;0.90;;
36829;SDS011;22767;47.328;9.640;2022-07-29T05:24:11;1.10;;;1.00;;
36829;SDS011;22767;47.328;9.640;2022-07-29T05:26:57;1.02;;;0.85;;
36829;SDS011;22767;47.328;9.640;2022-07-29T05:29:44;0.63;;;0.63;;
36829;SDS011;22767;47.328;9.640;2022-07-29T05:32:30;1.00;;;0.77;;
36829;SDS011;22767;47.328;9.640;2022-07-29T05:35:17;3.10;;;0.80;;
36829;SDS011;22767;47.328;9.640;2022-07-29T05:38:03;1.75;;;0.63;;
36829;SDS011;22767;47.328;9.640;2022-07-29T05:40:50;0.75;;;0.75;;
36829;SDS011;22767;47.328;9.640;2022-07-29T05:43:36;0.75;;;0.75;;
36829;SDS011;22767;47.328;9.640;2022-07-29T05:46:22;0.60;;;0.60;;
36829;SDS011;22767;47.328;9.640;2022-07-29T05:49:09;0.85;;;0.70;;
36829;SDS011;22767;47.328;9.640;2022-07-29T05:51:55;0.65;;;0.60;;
36829;SDS011;22767;47.328;9.640;2022-07-29T05:54:42;0.75;;;0.75;;
36829;SDS011;22767;47.328;9.640;2022-07-29T05:57:28;0.80;;;0.80;;
36829;SDS011;22767;47.328;9.640;2022-07-29T06:00:15;0.60;;;0.60;;
36829;SDS011;22767;47.328;9.640;2022-07-29T06:03:01;0.85;;;0.85;;
36829;SDS011;22767;47.328;9.640;2022-07-29T06:05:48;2.25;;;0.75;;
36829;SDS011;22767;47.328;9.640;2022-07-29T06:08:35;0.60;;;0.50;;
36829;SDS011;22767;47.328;9.640;2022-07-29T06:11:21;2.92;;;0.90;;
36829;SDS011;22767;47.328;9.640;2022-07-29T06:14:08;1.38;;;0.68;;
36829;SDS011;22767;47.328;9.640;2022-07-29T06:16:54;0.93;;;0.82;;
36829;SDS011;22767;47.328;9.640;2022-07-29T06:19:41;0.60;;;0.60;;
36829;SDS011;22767;47.328;9.640;2022-07-29T06:22:27;0.80;;;0.80;;
36829;SDS011;22767;47.328;9.640;2022-07-29T06:25:14;1.73;;;0.80;;
36829;SDS011;22767;47.328;9.640;2022-07-29T06:28:01;1.52;;;0.65;;
36829;SDS011;22767;47.328;9.640;2022-07-29T06:30:48;1.08;;;0.90;;
36829;SDS011;22767;47.328;9.640;2022-07-29T06:33:34;1.25;;;0.80;;
36829;SDS011;22767;47.328;9.640;2022-07-29T06:36:20;1.20;;;0.70;;
36829;SDS011;22767;47.328;9.640;2022-07-29T06:39:07;2.22;;;0.90;;
36829;SDS011;22767;47.328;9.640;2022-07-29T06:41:53;0.80;;;0.80;;
36829;SDS011;22767;47.328;9.640;2022-07-29T06:44:40;1.13;;;1.00;;
36829;SDS011;22767;47.328;9.640;2022-07-29T06:47:27;2.92;;;1.23;;
36829;SDS011;22767;47.328;9.640;2022-07-29T06:50:13;1.80;;;0.90;;
36829;SDS011;22767;47.328;9.640;2022-07-29T06:53:00;2.42;;;0.90;;
36829;SDS011;22767;47.328;9.640;2022-07-29T06:55:46;2.97;;;0.80;;
36829;SDS011;22767;47.328;9.640;2022-07-29T06:58:33;2.17;;;1.05;;
36829;SDS011;22767;47.328;9.640;2022-07-29T07:01:19;1.67;;;1.00;;
36829;SDS011;22767;47.328;9.640;2022-07-29T07:04:06;0.90;;;0.88;;
36829;SDS011;22767;47.328;9.640;2022-07-29T07:06:53;1.33;;;0.80;;
36829;SDS011;22767;47.328;9.640;2022-07-29T07:09:40;0.80;;;0.80;;
36829;SDS011;22767;47.328;9.640;2022-07-29T07:12:27;2.15;;;0.90;;
36829;SDS011;22767;47.328;9.640;2022-07-29T07:15:13;2.22;;;0.70;;
36829;SDS011;22767;47.328;9.640;2022-07-29T07:18:00;1.40;;;0.88;;
36829;SDS011;22767;47.328;9.640;2022-07-29T07:20:46;0.90;;;0.80;;
36829;SDS011;22767;47.328;9.640;2022-07-29T07:23:33;1.23;;;0.73;;
36829;SDS011;22767;47.328;9.640;2022-07-29T07:26:19;1.92;;;0.90;;
36829;SDS011;22767;47.328;9.640;2022-07-29T07:29:06;1.83;;;0.70;;
36829;SDS011;22767;47.328;9.640;2022-07-29T07:31:52;2.40;;;0.93;;
36829;SDS011;22767;47.328;9.640;2022-07-29T07:34:39;2.47;;;1.02;;
36829;SDS011;22767;47.328;9.640;2022-07-29T07:37:25;1.00;;;0.90;;
36829;SDS011;22767;47.328;9.640;2022-07-29T07:40:12;3.13;;;1.00;;
36829;SDS011;22767;47.328;9.640;2022-07-29T07:42:58;0.88;;;0.80;;
36829;SDS011;22767;47.328;9.640;2022-07-29T07:45:45;3.40;;;1.00;;
36829;SDS011;22767;47.328;9.640;2022-07-29T07:48:31;1.63;;;0.80;;
36829;SDS011;22767;47.328;9.640;2022-07-29T07:51:20;0.85;;;0.80;;
36829;SDS011;22767;47.328;9.640;2022-07-29T07:54:06;2.35;;;1.00;;
36829;SDS011;22767;47.328;9.640;2022-07-29T07:56:52;1.08;;;0.98;;
36829;SDS011;22767;47.328;9.640;2022-07-29T07:59:39;1.00;;;0.85;;
36829;SDS011;22767;47.328;9.640;2022-07-29T08:02:26;1.05;;;0.95;;
36829;SDS011;22767;47.328;9.640;2022-07-29T08:05:12;2.50;;;1.15;;
36829;SDS011;22767;47.328;9.640;2022-07-29T08:08:02;1.63;;;1.00;;
36829;SDS011;22767;47.328;9.640;2022-07-29T08:10:48;1.00;;;0.90;;
36829;SDS011;22767;47.328;9.640;2022-07-29T08:13:37;4.72;;;1.63;;
36829;SDS011;22767;47.328;9.640;2022-07-29T08:16:24;1.63;;;0.90;;
36829;SDS011;22767;47.328;9.640;2022-07-29T08:19:10;2.33;;;1.10;;
36829;SDS011;22767;47.328;9.640;2022-07-29T08:21:57;1.30;;;1.20;;
36829;SDS011;22767;47.328;9.640;2022-07-29T08:24:43;1.20;;;1.10;;
36829;SDS011;22767;47.328;9.640;2022-07-29T08:27:37;3.83;;;1.23;;
36829;SDS011;22767;47.328;9.640;2022-07-29T08:30:24;1.33;;;1.00;;
36829;SDS011;22767;47.328;9.640;2022-07-29T08:33:10;1.02;;;1.00;;
36829;SDS011;22767;47.328;9.640;2022-07-29T08:35:56;2.10;;;0.82;;
36829;SDS011;22767;47.328;9.640;2022-07-29T08:38:43;2.35;;;0.95;;
36829;SDS011;22767;47.328;9.640;2022-07-29T08:41:29;1.98;;;0.80;;
36829;SDS011;22767;47.328;9.640;2022-07-29T08:44:17;1.98;;;1.15;;
36829;SDS011;22767;47.328;9.640;2022-07-29T08:47:04;1.27;;;1.17;;
36829;SDS011;22767;47.328;9.640;2022-07-29T08:49:50;1.23;;;1.13;;
36829;SDS011;22767;47.328;9.640;2022-07-29T08:52:38;1.23;;;1.13;;
36829;SDS011;22767;47.328;9.640;2022-07-29T08:55:24;1.58;;;1.23;;
36829;SDS011;22767;47.328;9.640;2022-07-29T08:58:11;1.20;;;1.10;;
36829;SDS011;22767;47.328;9.640;2022-07-29T09:00:59;1.88;;;1.13;;
36829;SDS011;22767;47.328;9.640;2022-07-29T09:03:47;1.20;;;1.10;;
36829;SDS011;22767;47.328;9.640;2022-07-29T09:06:35;1.92;;;1.30;;
36829;SDS011;22767;47.328;9.640;2022-07-29T09:09:23;1.27;;;1.17;;
36829;SDS011;22767;47.328;9.640;2022-07-29T09:12:09;3.28;;;1.10;;
36829;SDS011;22767;47.328;9.640;2022-07-29T09:14:59;2.30;;;1.73;;
36829;SDS011;22767;47.328;9.640;2022-07-29T09:17:46;2.47;;;1.55;;
36829;SDS011;22767;47.328;9.640;2022-07-29T09:20:33;3.30;;;1.33;;
36829;SDS011;22767;47.328;9.640;2022-07-29T09:23:38;1.98;;;1.50;;
36829;SDS011;22767;47.328;9.640;2022-07-29T09:26:30;2.28;;;1.23;;
36829;SDS011;22767;47.328;9.640;2022-07-29T09:29:20;2.65;;;1.40;;
36829;SDS011;22767;47.328;9.640;2022-07-29T09:32:08;3.13;;;1.38;;
36829;SDS011;22767;47.328;9.640;2022-07-29T09:38:20;1.40;;;1.30;;
36829;SDS011;22767;47.328;9.640;2022-07-29T09:41:07;4.20;;;1.60;;
36829;SDS011;22767;47.328;9.640;2022-07-29T09:46:54;2.25;;;1.50;;
36829;SDS011;22767;47.328;9.640;2022-07-29T09:49:54;3.10;;;1.38;;
36829;SDS011;22767;47.328;9.640;2022-07-29T09:52:52;3.72;;;1.80;;
36829;SDS011;22767;47.328;9.640;2022-07-29T09:55:48;2.67;;;1.73;;
36829;SDS011;22767;47.328;9.640;2022-07-29T09:58:35;2.25;;;1.70;;
36829;SDS011;22767;47.328;9.640;2022-07-29T10:01:27;1.40;;;1.30;;
36829;SDS011;22767;47.328;9.640;2022-07-29T10:04:14;3.85;;;2.10;;
36829;SDS011;22767;47.328;9.640;2022-07-29T10:07:01;5.95;;;1.83;;
36829;SDS011;22767;47.328;9.640;2022-07-29T10:09:53;2.65;;;1.40;;
36829;SDS011;22767;47.328;9.640;2022-07-29T10:12:59;2.97;;;1.30;;
36829;SDS011;22767;47.328;9.640;2022-07-29T10:15:46;1.60;;;1.50;;
36829;SDS011;22767;47.328;9.640;2022-07-29T10:18:37;1.40;;;1.30;;
36829;SDS011;22767;47.328;9.640;2022-07-29T10:21:27;2.80;;;1.02;;
36829;SDS011;22767;47.328;9.640;2022-07-29T10:24:14;1.60;;;1.50;;
36829;SDS011;22767;47.328;9.640;2022-07-29T10:27:02;1.90;;;1.63;;
36829;SDS011;22767;47.328;9.640;2022-07-29T10:29:49;2.85;;;1.33;;
36829;SDS011;22767;47.328;9.640;2022-07-29T10:35:44;1.83;;;1.33;;
36829;SDS011;22767;47.328;9.640;2022-07-29T10:38:41;2.38;;;1.02;;
36829;SDS011;22767;47.328;9.640;2022-07-29T10:44:21;1.85;;;1.40;;
36829;SDS011;22767;47.328;9.640;2022-07-29T10:47:08;1.67;;;1.50;;
36829;SDS011;22767;47.328;9.640;2022-07-29T10:49:55;1.38;;;1.17;;
36829;SDS011;22767;47.328;9.640;2022-07-29T10:55:39;1.38;;;1.13;;
36829;SDS011;22767;47.328;9.640;2022-07-29T10:58:27;2.83;;;1.20;;
36829;SDS011;22767;47.328;9.640;2022-07-29T11:01:35;1.95;;;1.42;;
36829;SDS011;22767;47.328;9.640;2022-07-29T11:07:26;2.30;;;1.70;;
36829;SDS011;22767;47.328;9.640;2022-07-29T11:13:01;2.38;;;1.30;;
36829;SDS011;22767;47.328;9.640;2022-07-29T11:15:57;2.35;;;1.25;;
36829;SDS011;22767;47.328;9.640;2022-07-29T11:22:02;1.02;;;1.00;;
36829;SDS011;22767;47.328;9.640;2022-07-29T11:28:19;2.25;;;1.17;;
36829;SDS011;22767;47.328;9.640;2022-07-29T11:31:07;2.47;;;1.10;;
36829;SDS011;22767;47.328;9.640;2022-07-29T11:33:56;2.42;;;1.15;;
36829;SDS011;22767;47.328;9.640;2022-07-29T11:42:50;1.33;;;1.10;;
36829;SDS011;22767;47.328;9.640;2022-07-29T11:45:44;2.00;;;1.27;;
36829;SDS011;22767;47.328;9.640;2022-07-29T11:48:31;1.67;;;1.33;;
36829;SDS011;22767;47.328;9.640;2022-07-29T11:51:18;2.60;;;1.40;;
36829;SDS011;22767;47.328;9.640;2022-07-29T11:54:05;1.50;;;1.20;;
36829;SDS011;22767;47.328;9.640;2022-07-29T11:56:52;2.03;;;1.10;;
36829;SDS011;22767;47.328;9.640;2022-07-29T11:59:39;1.35;;;1.10;;
36829;SDS011;22767;47.328;9.640;2022-07-29T12:02:37;1.30;;;1.23;;
36829;SDS011;22767;47.328;9.640;2022-07-29T12:05:38;1.83;;;1.50;;
36829;SDS011;22767;47.328;9.640;2022-07-29T12:08:24;1.40;;;1.15;;
36829;SDS011;22767;47.328;9.640;2022-07-29T12:11:19;2.03;;;1.20;;
36829;SDS011;22767;47.328;9.640;2022-07-29T12:14:06;1.33;;;1.23;;
36829;SDS011;22767;47.328;9.640;2022-07-29T12:16:52;1.20;;;1.10;;
36829;SDS011;22767;47.328;9.640;2022-07-29T12:19:42;2.38;;;1.40;;
36829;SDS011;22767;47.328;9.640;2022-07-29T12:22:29;1.15;;;1.05;;
36829;SDS011;22767;47.328;9.640;2022-07-29T12:25:17;1.20;;;1.10;;
36829;SDS011;22767;47.328;9.640;2022-07-29T12:28:04;0.90;;;0.80;;
36829;SDS011;22767;47.328;9.640;2022-07-29T12:30:51;1.42;;;0.90;;
36829;SDS011;22767;47.328;9.640;2022-07-29T12:33:38;1.08;;;1.02;;
36829;SDS011;22767;47.328;9.640;2022-07-29T12:36:24;0.95;;;0.95;;
36829;SDS011;22767;47.328;9.640;2022-07-29T12:39:11;1.15;;;0.90;;
36829;SDS011;22767;47.328;9.640;2022-07-29T12:41:57;0.60;;;0.60;;
36829;SDS011;22767;47.328;9.640;2022-07-29T12:44:47;2.20;;;1.00;;
36829;SDS011;22767;47.328;9.640;2022-07-29T12:47:50;1.05;;;0.80;;
36829;SDS011;22767;47.328;9.640;2022-07-29T12:50:51;1.70;;;1.02;;
36829;SDS011;22767;47.328;9.640;2022-07-29T12:53:38;0.90;;;0.90;;
36829;SDS011;22767;47.328;9.640;2022-07-29T12:56:25;0.80;;;0.80;;
36829;SDS011;22767;47.328;9.640;2022-07-29T12:59:21;1.45;;;0.90;;
36829;SDS011;22767;47.328;9.640;2022-07-29T13:02:19;2.00;;;1.20;;
36829;SDS011;22767;47.328;9.640;2022-07-29T13:05:06;1.23;;;0.98;;
36829;SDS011;22767;47.328;9.640;2022-07-29T13:07:53;1.35;;;0.90;;
36829;SDS011;22767;47.328;9.640;2022-07-29T13:10:40;0.80;;;0.80;;
36829;SDS011;22767;47.328;9.640;2022-07-29T13:13:26;1.92;;;1.23;;
36829;SDS011;22767;47.328;9.640;2022-07-29T13:16:13;0.90;;;0.90;;
36829;SDS011;22767;47.328;9.640;2022-07-29T13:22:13;2.67;;;0.90;;
36829;SDS011;22767;47.328;9.640;2022-07-29T13:25:01;1.48;;;0.77;;
36829;SDS011;22767;47.328;9.640;2022-07-29T13:27:47;1.17;;;0.80;;
36829;SDS011;22767;47.328;9.640;2022-07-29T13:30:34;1.17;;;0.95;;
36829;SDS011;22767;47.328;9.640;2022-07-29T13:33:20;0.88;;;0.88;;
36829;SDS011;22767;47.328;9.640;2022-07-29T13:36:06;1.70;;;0.90;;
36829;SDS011;22767;47.328;9.640;2022-07-29T13:38:53;0.88;;;0.88;;
36829;SDS011;22767;47.328;9.640;2022-07-29T13:41:39;1.73;;;0.90;;
36829;SDS011;22767;47.328;9.640;2022-07-29T13:44:26;0.90;;;0.90;;
36829;SDS011;22767;47.328;9.640;2022-07-29T13:47:12;0.77;;;0.77;;
36829;SDS011;22767;47.328;9.640;2022-07-29T13:50:03;2.92;;;1.08;;
36829;SDS011;22767;47.328;9.640;2022-07-29T13:52:49;3.40;;;1.17;;
36829;SDS011;22767;47.328;9.640;2022-07-29T13:55:36;1.45;;;1.10;;
36829;SDS011;22767;47.328;9.640;2022-07-29T13:58:22;1.02;;;0.90;;
36829;SDS011;22767;47.328;9.640;2022-07-29T14:01:09;2.05;;;1.00;;
36829;SDS011;22767;47.328;9.640;2022-07-29T14:03:55;1.15;;;1.05;;
36829;SDS011;22767;47.328;9.640;2022-07-29T14:06:42;1.27;;;1.05;;
36829;SDS011;22767;47.328;9.640;2022-07-29T14:09:28;0.75;;;0.75;;
36829;SDS011;22767;47.328;9.640;2022-07-29T14:12:15;1.00;;;1.00;;
36829;SDS011;22767;47.328;9.640;2022-07-29T14:15:01;2.85;;;1.05;;
36829;SDS011;22767;47.328;9.640;2022-07-29T14:17:48;2.92;;;1.10;;
36829;SDS011;22767;47.328;9.640;2022-07-29T14:20:34;3.13;;;1.00;;
36829;SDS011;22767;47.328;9.640;2022-07-29T14:23:21;2.78;;;1.00;;
36829;SDS011;22767;47.328;9.640;2022-07-29T14:26:07;3.22;;;1.17;;
36829;SDS011;22767;47.328;9.640;2022-07-29T14:28:53;3.38;;;1.38;;
36829;SDS011;22767;47.328;9.640;2022-07-29T14:31:40;3.25;;;1.30;;
36829;SDS011;22767;47.328;9.640;2022-07-29T14:34:28;2.22;;;1.67;;
36829;SDS011;22767;47.328;9.640;2022-07-29T14:37:14;2.28;;;1.65;;
36829;SDS011;22767;47.328;9.640;2022-07-29T14:40:01;1.88;;;1.70;;
36829;SDS011;22767;47.328;9.640;2022-07-29T14:42:49;5.93;;;1.80;;
36829;SDS011;22767;47.328;9.640;2022-07-29T14:45:35;2.00;;;1.45;;
36829;SDS011;22767;47.328;9.640;2022-07-29T14:48:21;2.35;;;1.58;;
36829;SDS011;22767;47.328;9.640;2022-07-29T14:51:08;1.77;;;1.02;;
36829;SDS011;22767;47.328;9.640;2022-07-29T14:53:55;1.05;;;0.95;;
36829;SDS011;22767;47.328;9.640;2022-07-29T14:56:41;1.95;;;1.38;;
36829;SDS011;22767;47.328;9.640;2022-07-29T14:59:28;2.75;;;1.50;;
36829;SDS011;22767;47.328;9.640;2022-07-29T15:02:15;2.85;;;1.77;;
36829;SDS011;22767;47.328;9.640;2022-07-29T15:05:01;3.03;;;2.00;;
36829;SDS011;22767;47.328;9.640;2022-07-29T15:07:47;1.90;;;1.58;;
36829;SDS011;22767;47.328;9.640;2022-07-29T15:10:34;1.65;;;1.40;;
36829;SDS011;22767;47.328;9.640;2022-07-29T15:13:20;1.10;;;1.10;;
36829;SDS011;22767;47.328;9.640;2022-07-29T15:16:07;1.98;;;1.15;;
36829;SDS011;22767;47.328;9.640;2022-07-29T15:18:54;2.88;;;1.50;;
36829;SDS011;22767;47.328;9.640;2022-07-29T15:21:42;1.77;;;1.38;;
36829;SDS011;22767;47.328;9.640;2022-07-29T15:24:29;2.33;;;1.50;;
36829;SDS011;22767;47.328;9.640;2022-07-29T15:27:15;2.42;;;1.45;;
36829;SDS011;22767;47.328;9.640;2022-07-29T15:30:02;1.98;;;1.73;;
36829;SDS011;22767;47.328;9.640;2022-07-29T15:32:48;3.42;;;1.77;;
36829;SDS011;22767;47.328;9.640;2022-07-29T15:35:38;2.83;;;1.70;;
36829;SDS011;22767;47.328;9.640;2022-07-29T15:38:24;1.98;;;1.50;;
36829;SDS011;22767;47.328;9.640;2022-07-29T15:41:14;1.40;;;1.30;;
36829;SDS011;22767;47.328;9.640;2022-07-29T15:44:00;4.88;;;1.95;;
36829;SDS011;22767;47.328;9.640;2022-07-29T15:46:47;2.78;;;1.98;;
36829;SDS011;22767;47.328;9.640;2022-07-29T15:49:50;1.92;;;1.45;;
36829;SDS011;22767;47.328;9.640;2022-07-29T15:52:36;2.78;;;1.70;;
36829;SDS011;22767;47.328;9.640;2022-07-29T15:55:23;2.05;;;1.58;;
36829;SDS011;22767;47.328;9.640;2022-07-29T15:58:09;3.30;;;1.80;;
36829;SDS011;22767;47.328;9.640;2022-07-29T16:00:55;3.50;;;2.03;;
36829;SDS011;22767;47.328;9.640;2022-07-29T16:03:43;4.13;;;2.50;;
36829;SDS011;22767;47.328;9.640;2022-07-29T16:06:29;3.70;;;2.50;;
36829;SDS011;22767;47.328;9.640;2022-07-29T16:09:16;3.28;;;2.15;;
36829;SDS011;22767;47.328;9.640;2022-07-29T16:12:03;1.88;;;1.65;;
36829;SDS011;22767;47.328;9.640;2022-07-29T16:14:50;2.53;;;1.40;;
36829;SDS011;22767;47.328;9.640;2022-07-29T16:17:36;1.48;;;1.30;;
36829;SDS011;22767;47.328;9.640;2022-07-29T16:20:23;2.33;;;1.67;;
36829;SDS011;22767;47.328;9.640;2022-07-29T16:23:10;1.65;;;1.52;;
36829;SDS011;22767;47.328;9.640;2022-07-29T16:25:56;3.20;;;2.03;;
36829;SDS011;22767;47.328;9.640;2022-07-29T16:28:43;2.33;;;2.13;;
36829;SDS011;22767;47.328;9.640;2022-07-29T16:31:29;1.80;;;1.70;;
36829;SDS011;22767;47.328;9.640;2022-07-29T16:34:15;2.47;;;1.60;;
36829;SDS011;22767;47.328;9.640;2022-07-29T16:37:02;2.63;;;2.03;;
36829;SDS011;22767;47.328;9.640;2022-07-29T16:39:48;4.78;;;2.42;;
36829;SDS011;22767;47.328;9.640;2022-07-29T16:42:35;2.00;;;1.80;;
36829;SDS011;22767;47.328;9.640;2022-07-29T16:45:21;2.00;;;1.42;;
36829;SDS011;22767;47.328;9.640;2022-07-29T16:48:07;1.40;;;1.30;;
36829;SDS011;22767;47.328;9.640;2022-07-29T16:50:54;2.65;;;1.58;;
36829;SDS011;22767;47.328;9.640;2022-07-29T16:53:40;2.20;;;2.00;;
36829;SDS011;22767;47.328;9.640;2022-07-29T16:56:27;2.00;;;1.70;;
36829;SDS011;22767;47.328;9.640;2022-07-29T16:59:13;2.03;;;1.80;;
36829;SDS011;22767;47.328;9.640;2022-07-29T17:02:00;1.98;;;1.77;;
36829;SDS011;22767;47.328;9.640;2022-07-29T17:04:46;1.92;;;1.73;;
36829;SDS011;22767;47.328;9.640;2022-07-29T17:07:33;2.97;;;2.30;;
36829;SDS011;22767;47.328;9.640;2022-07-29T17:10:19;1.90;;;1.80;;
36829;SDS011;22767;47.328;9.640;2022-07-29T17:13:06;2.72;;;1.90;;
36829;SDS011;22767;47.328;9.640;2022-07-29T17:15:52;1.90;;;1.70;;
36829;SDS011;22767;47.328;9.640;2022-07-29T17:18:39;1.63;;;1.40;;
36829;SDS011;22767;47.328;9.640;2022-07-29T17:21:25;1.42;;;1.30;;
36829;SDS011;22767;47.328;9.640;2022-07-29T17:24:12;2.40;;;1.73;;
36829;SDS011;22767;47.328;9.640;2022-07-29T17:26:58;2.88;;;1.65;;
36829;SDS011;22767;47.328;9.640;2022-07-29T17:29:45;2.20;;;1.83;;
36829;SDS011;22767;47.328;9.640;2022-07-29T17:32:31;1.85;;;1.70;;
36829;SDS011;22767;47.328;9.640;2022-07-29T17:35:22;2.45;;;1.77;;
36829;SDS011;22767;47.328;9.640;2022-07-29T17:38:27;1.95;;;1.83;;
36829;SDS011;22767;47.328;9.640;2022-07-29T17:41:14;1.90;;;1.77;;
36829;SDS011;22767;47.328;9.640;2022-07-29T17:44:00;1.70;;;1.40;;